Impacts TAF Board
For situational awareness. Not to be used for flight planning purposes.
IDs:

KDDC - Dodge City Arpt, KS, US

Issued at 1720 UTC 08 Aug 2020
Updated at 2036 UTC 08 Aug 2020
Potential Impact None Slight Moderate High
Time2017Z 08/21Z 08/22Z 08/23Z 09/00Z 09/01Z 09/02Z 09/03Z 09/04Z 09/05Z 09/06Z 09/07Z 09/08Z 09/09Z>>
Type OBS PRVL PRVL PRVL PRVL PRVL PRVL PRVL PRVL PRVL PRVL PRVL PRVL PRVL
VIS 10 >6 >6 >6 >6 >6 >6 >6 >6 >6 >6 >6 >6 >6
CIG -- -- -- -- -- -- -- -- -- -- -- -- -- --
Cover FEW SCT SCT SCT SCT SCT SCT SCT FEW FEW FEW FEW FEW FEW
FltCat VFR VFR VFR VFR VFR VFR VFR VFR VFR VFR VFR VFR VFR VFR
WX -- -- -- -- -- -- -- -- -- -- -- -- -- --
WDir 160 190 190 190 190 190 190 190 170 170 170 170 170 170
WSpd 14 18 18 18 18 18 18 18 15 15 15 15 15 15
WGst 22 25 25 25 25 25 25 25 -- -- -- -- -- --
Raw TAF
KDDC 081720Z 0818/0918 19018G25KT P6SM SCT100
  FM090400 17015KT P6SM FEW250 WS020/22050KT
  FM091100 20011KT P6SM FEW250


Raw METAR
KDDC 082017Z AUTO 16014G22KT 10SM FEW002 34/18 A2994 RMK AO2 PK WND 16031/2003 T03390183
KDDC 081952Z AUTO 16014G23KT 10SM CLR 34/19 A2994 RMK AO2 SLP101 T03440189
KDDC 081852Z AUTO 17012KT 10SM CLR 30/17 A2996 RMK AO2 PK WND 19027/1808 SLP110 T03000172
KDDC 081752Z AUTO 18018G24KT 10SM CLR 31/16 A2997 RMK AO2 PK WND 20026/1712 SLP112 T03110161 10322 20183 58003

METAR Board
Radar Display
Forecast Discussion
For situational awareness. Not to be used for flight planning purposes.